createdAt,value
2023-06-10T00:00:03.033Z,18.60
2023-06-10T00:02:30.479Z,20.25
2023-06-10T00:04:58.545Z,19.25
2023-06-10T00:07:26.056Z,19.45
2023-06-10T00:09:53.379Z,19.23
2023-06-10T00:12:21.541Z,20.97
2023-06-10T00:14:51.528Z,20.65
2023-06-10T00:17:19.060Z,21.85
2023-06-10T00:19:48.205Z,20.90
2023-06-10T00:22:15.939Z,20.35
2023-06-10T00:24:43.643Z,20.88
2023-06-10T00:27:11.347Z,20.98
2023-06-10T00:29:41.200Z,21.33
2023-06-10T00:32:09.193Z,21.37
2023-06-10T00:34:36.812Z,21.52
2023-06-10T00:37:04.540Z,21.92
2023-06-10T00:39:31.988Z,21.30
2023-06-10T00:41:59.588Z,21.77
2023-06-10T00:44:28.156Z,22.63
2023-06-10T00:46:57.253Z,21.23
2023-06-10T00:49:25.065Z,21.87
2023-06-10T00:51:54.399Z,21.87
2023-06-10T00:54:22.351Z,20.92
2023-06-10T00:56:51.227Z,21.17
2023-06-10T00:59:19.580Z,21.05
2023-06-10T01:01:50.997Z,20.98
2023-06-10T01:04:20.978Z,20.95
2023-06-10T01:07:25.843Z,21.70
2023-06-10T01:10:19.157Z,21.13
2023-06-10T01:13:04.752Z,21.00
2023-06-10T01:15:33.178Z,20.97
2023-06-10T01:18:03.891Z,21.13
2023-06-10T01:20:34.431Z,21.13
2023-06-10T01:23:04.308Z,22.13
2023-06-10T01:25:35.851Z,22.88
2023-06-10T01:28:12.274Z,21.77
2023-06-10T01:31:04.465Z,22.38
2023-06-10T01:33:43.863Z,22.02
2023-06-10T01:36:13.733Z,21.45
2023-06-10T01:38:46.178Z,21.58
2023-06-10T01:41:19.217Z,20.88
2023-06-10T01:43:47.308Z,20.77
2023-06-10T01:46:16.264Z,20.88
2023-06-10T01:48:45.377Z,21.45
2023-06-10T01:51:12.717Z,21.02
2023-06-10T01:53:40.053Z,21.57
2023-06-10T01:56:07.372Z,23.10
2023-06-10T01:58:34.666Z,22.37
2023-06-10T02:01:02.158Z,22.67
2023-06-10T02:03:29.667Z,23.17
2023-06-10T02:05:57.952Z,22.95
2023-06-10T02:08:25.476Z,23.77
2023-06-10T02:10:52.815Z,23.13
2023-06-10T02:13:20.180Z,22.85
2023-06-10T02:15:49.012Z,22.75
2023-06-10T02:18:16.942Z,24.63
2023-06-10T02:20:44.248Z,24.67
2023-06-10T02:23:11.553Z,24.25
2023-06-10T02:25:38.837Z,24.35
2023-06-10T02:28:06.253Z,24.05
2023-06-10T02:30:33.559Z,24.83
2023-06-10T02:33:10.929Z,24.38
2023-06-10T02:35:40.117Z,23.10
2023-06-10T02:38:08.608Z,22.83
2023-06-10T02:40:36.135Z,23.08
2023-06-10T02:43:03.577Z,23.30
2023-06-10T02:45:33.199Z,23.05
2023-06-10T02:48:00.714Z,22.05
2023-06-10T02:50:27.983Z,21.45
2023-06-10T02:52:55.285Z,21.70
2023-06-10T02:55:22.744Z,21.63
2023-06-10T02:57:51.662Z,21.88
2023-06-10T03:00:22.822Z,21.27
2023-06-10T03:02:50.445Z,21.65
2023-06-10T03:05:18.293Z,21.30
2023-06-10T03:07:51.151Z,21.00
2023-06-10T03:10:18.399Z,20.90
2023-06-10T03:12:45.918Z,20.90
2023-06-10T03:15:13.621Z,21.07
2023-06-10T03:17:40.982Z,20.40
2023-06-10T03:20:11.538Z,19.48
2023-06-10T03:22:41.845Z,19.77
2023-06-10T03:25:15.412Z,20.35
2023-06-10T03:27:44.468Z,19.52
2023-06-10T03:30:13.649Z,20.73
2023-06-10T03:32:42.281Z,18.92
2023-06-10T03:35:10.202Z,18.75
2023-06-10T03:37:37.782Z,17.73
2023-06-10T03:40:06.417Z,17.85
2023-06-10T03:42:33.855Z,17.65
2023-06-10T03:45:01.211Z,17.17
2023-06-10T03:47:34.524Z,16.52
2023-06-10T03:50:02.204Z,15.30
2023-06-10T03:52:29.526Z,13.57
2023-06-10T03:54:57.217Z,13.37
2023-06-10T03:57:24.560Z,12.00
2023-06-10T03:59:51.852Z,12.55
2023-06-10T04:02:19.388Z,11.57
2023-06-10T04:04:46.724Z,11.70
2023-06-10T04:07:15.230Z,12.18
2023-06-10T04:09:42.511Z,11.10
2023-06-10T04:12:11.544Z,11.15
2023-06-10T04:14:39.090Z,12.25
2023-06-10T04:17:10.026Z,13.37
2023-06-10T04:19:38.979Z,14.07
2023-06-10T04:22:06.494Z,14.13
2023-06-10T04:24:33.832Z,14.77
2023-06-10T04:27:01.891Z,14.43
2023-06-10T04:29:29.647Z,14.30
2023-06-10T04:31:57.082Z,14.90
2023-06-10T04:34:24.476Z,14.23
2023-06-10T04:36:52.188Z,13.90
2023-06-10T04:39:19.646Z,14.18
2023-06-10T04:41:47.510Z,14.68
2023-06-10T04:44:14.917Z,15.23
2023-06-10T04:46:42.275Z,15.85
2023-06-10T04:49:10.918Z,15.13
2023-06-10T04:51:39.326Z,16.08
2023-06-10T04:54:06.701Z,16.13
2023-06-10T04:56:34.404Z,16.83
2023-06-10T04:59:02.016Z,16.60
2023-06-10T05:01:29.605Z,14.93
2023-06-10T05:03:57.103Z,16.02
2023-06-10T05:06:24.489Z,16.25
2023-06-10T05:08:51.792Z,16.40
2023-06-10T05:11:19.104Z,15.43
2023-06-10T05:13:46.463Z,16.42
2023-06-10T05:16:13.826Z,17.02
2023-06-10T05:18:41.173Z,16.95
2023-06-10T05:21:08.662Z,16.67
2023-06-10T05:23:35.994Z,16.58
2023-06-10T05:26:03.679Z,17.00
2023-06-10T05:28:30.950Z,17.35
2023-06-10T05:30:58.269Z,16.85
2023-06-10T05:33:25.722Z,15.68
2023-06-10T05:35:53.184Z,15.00
2023-06-10T05:38:20.647Z,14.75
2023-06-10T05:40:48.112Z,14.70
2023-06-10T05:43:17.809Z,13.95
2023-06-10T05:45:45.129Z,15.48
2023-06-10T05:48:12.504Z,13.57
2023-06-10T05:50:43.601Z,13.40
2023-06-10T05:53:16.283Z,13.63
2023-06-10T05:55:47.693Z,14.00
2023-06-10T05:58:15.786Z,12.80
2023-06-10T06:00:43.230Z,13.20
2023-06-10T06:03:11.650Z,12.88
2023-06-10T06:05:39.716Z,14.02
2023-06-10T06:08:10.616Z,13.80
2023-06-10T06:10:38.024Z,13.70
2023-06-10T06:13:12.108Z,12.73
2023-06-10T06:15:39.516Z,12.90
2023-06-10T06:18:07.977Z,12.57
2023-06-10T06:20:43.696Z,14.40
2023-06-10T06:23:32.935Z,13.65
2023-06-10T06:26:33.281Z,13.07
2023-06-10T06:29:19.568Z,13.85
2023-06-10T06:31:47.351Z,13.65
2023-06-10T06:34:16.926Z,14.25
2023-06-10T06:36:44.342Z,13.77
2023-06-10T06:39:11.804Z,13.85
2023-06-10T06:41:42.591Z,14.00
2023-06-10T06:44:13.681Z,13.20
2023-06-10T06:46:41.329Z,13.85
2023-06-10T06:49:14.689Z,13.53
2023-06-10T06:51:49.909Z,13.63
2023-06-10T06:54:22.674Z,12.90
2023-06-10T06:57:18.420Z,12.88
2023-06-10T07:00:09.602Z,12.60
2023-06-10T07:02:43.295Z,13.43
2023-06-10T07:05:19.345Z,14.02
2023-06-10T07:07:47.139Z,12.32
2023-06-10T07:10:16.037Z,12.93
2023-06-10T07:16:18.354Z,11.25
2023-06-10T07:19:33.335Z,11.07
2023-06-10T07:23:08.641Z,10.45
2023-06-10T07:25:50.757Z,10.50
2023-06-10T07:28:22.335Z,10.90
2023-06-10T07:31:33.065Z,11.07
2023-06-10T07:34:22.102Z,10.63
2023-06-10T07:36:51.824Z,10.90
2023-06-10T07:39:23.301Z,10.75
2023-06-10T07:41:55.466Z,9.88
2023-06-10T07:44:29.179Z,9.30
2023-06-10T07:47:07.040Z,9.23
2023-06-10T07:49:36.036Z,9.48
2023-06-10T07:52:08.101Z,9.13
2023-06-10T07:54:39.771Z,8.60
2023-06-10T07:57:27.293Z,8.57
2023-06-10T08:00:32.290Z,8.05
2023-06-10T08:03:38.907Z,7.80
2023-06-10T08:06:30.349Z,7.70
2023-06-10T08:09:05.116Z,7.93
2023-06-10T08:11:37.406Z,8.40
2023-06-10T08:14:15.129Z,8.07
2023-06-10T08:16:44.378Z,7.93
2023-06-10T08:19:12.791Z,8.30
2023-06-10T08:21:41.777Z,9.30
2023-06-10T08:24:23.740Z,9.90
2023-06-10T08:27:07.006Z,10.40
2023-06-10T08:29:42.695Z,10.37
2023-06-10T08:32:10.655Z,11.10
2023-06-10T08:34:38.012Z,11.02
2023-06-10T08:37:15.494Z,11.13
2023-06-10T08:39:44.451Z,11.85
2023-06-10T08:42:38.284Z,10.95
2023-06-10T08:45:19.018Z,11.60
2023-06-10T08:47:50.595Z,10.48
2023-06-10T08:50:23.172Z,11.27
2023-06-10T08:52:58.311Z,10.57
2023-06-10T08:55:33.913Z,10.90
2023-06-10T08:58:02.466Z,10.40
2023-06-10T09:00:32.253Z,10.85
2023-06-10T09:03:04.676Z,10.75
2023-06-10T09:05:37.587Z,9.85
2023-06-10T09:08:16.776Z,10.10
2023-06-10T09:10:44.447Z,10.32
2023-06-10T09:13:11.939Z,9.77
2023-06-10T09:15:43.722Z,9.32
2023-06-10T09:18:11.302Z,9.98
2023-06-10T09:20:41.005Z,10.40
2023-06-10T09:23:10.069Z,10.75
2023-06-10T09:25:39.822Z,10.13
2023-06-10T09:28:17.760Z,9.00
2023-06-10T09:30:45.101Z,9.80
2023-06-10T09:33:18.548Z,9.15
2023-06-10T09:35:51.283Z,9.55
2023-06-10T09:38:24.009Z,9.70
2023-06-10T09:40:54.024Z,10.50
2023-06-10T09:43:22.234Z,11.27
2023-06-10T09:45:55.651Z,10.15
2023-06-10T09:48:24.961Z,10.48
2023-06-10T09:50:53.956Z,10.35
2023-06-10T09:53:22.366Z,10.25
2023-06-10T09:55:49.825Z,12.50
2023-06-10T09:58:17.091Z,13.43
2023-06-10T10:00:44.421Z,13.90
2023-06-10T10:03:23.580Z,13.93
2023-06-10T10:06:01.895Z,15.10
2023-06-10T10:08:29.814Z,14.85
2023-06-10T10:10:59.348Z,15.38
2023-06-10T10:13:29.059Z,15.70
2023-06-10T10:16:02.494Z,15.15
2023-06-10T10:18:32.610Z,14.80
2023-06-10T10:21:10.527Z,14.98
2023-06-10T10:24:02.651Z,15.13
2023-06-10T10:26:33.766Z,15.05
2023-06-10T10:29:12.724Z,15.68
2023-06-10T10:31:45.347Z,16.15
2023-06-10T10:34:23.102Z,14.68
2023-06-10T10:36:53.057Z,15.32
2023-06-10T10:39:21.132Z,15.50
2023-06-10T10:41:50.751Z,15.25
2023-06-10T10:44:19.130Z,15.48
2023-06-10T10:46:51.765Z,16.08
2023-06-10T10:49:21.459Z,15.52
2023-06-10T10:52:13.269Z,15.48
2023-06-10T10:54:47.891Z,13.07
2023-06-10T10:57:21.423Z,12.68
2023-06-10T11:00:06.150Z,13.63
2023-06-10T11:02:43.082Z,12.85
2023-06-10T11:05:16.678Z,12.38
2023-06-10T11:07:57.146Z,13.07
2023-06-10T11:10:39.013Z,12.15
2023-06-10T11:13:16.485Z,13.57
2023-06-10T11:15:50.819Z,13.38
2023-06-10T11:18:39.532Z,13.02
2023-06-10T11:21:07.432Z,11.80
2023-06-10T11:23:43.260Z,12.17
2023-06-10T11:26:35.981Z,11.75
2023-06-10T11:29:12.130Z,10.70
2023-06-10T11:31:51.180Z,11.97
2023-06-10T11:34:26.122Z,11.32
2023-06-10T11:36:54.705Z,10.43
2023-06-10T11:39:25.600Z,12.07
2023-06-10T11:41:53.112Z,11.10
2023-06-10T11:44:20.814Z,8.60
2023-06-10T11:46:51.132Z,7.45
2023-06-10T11:49:18.683Z,7.45
2023-06-10T11:51:51.325Z,8.10
2023-06-10T11:54:19.528Z,7.15
2023-06-10T11:56:48.561Z,6.90
2023-06-10T11:59:16.162Z,6.30
2023-06-10T12:01:45.956Z,6.70
2023-06-10T12:04:19.710Z,7.20
2023-06-10T12:06:52.743Z,6.90
2023-06-10T12:09:29.644Z,7.30
2023-06-10T12:12:04.413Z,7.45
2023-06-10T12:15:03.879Z,8.00
2023-06-10T12:17:35.424Z,8.43
2023-06-10T12:20:09.587Z,8.30
2023-06-10T12:22:45.778Z,8.45
2023-06-10T12:25:14.127Z,8.98
2023-06-10T12:27:53.072Z,8.07
2023-06-10T12:30:26.000Z,7.35
2023-06-10T12:32:54.494Z,7.22
2023-06-10T12:35:29.039Z,9.50
2023-06-10T12:38:12.238Z,9.57
2023-06-10T12:40:41.860Z,9.53
2023-06-10T12:43:09.540Z,10.30
2023-06-10T12:45:44.374Z,10.63
2023-06-10T12:48:18.976Z,10.05
2023-06-10T12:50:53.359Z,11.20
2023-06-10T12:53:24.272Z,10.73
2023-06-10T12:55:53.110Z,10.90
2023-06-10T12:58:24.439Z,12.85
2023-06-10T13:00:54.327Z,9.45
2023-06-10T13:03:22.149Z,8.60
2023-06-10T13:05:49.666Z,9.02
2023-06-10T13:08:16.997Z,11.07
2023-06-10T13:10:44.450Z,9.45
2023-06-10T13:13:11.814Z,9.52
2023-06-10T13:15:43.260Z,9.37
2023-06-10T13:18:13.672Z,9.82
2023-06-10T13:20:41.161Z,9.00
2023-06-10T13:23:10.001Z,9.43
2023-06-10T13:25:37.328Z,9.55
2023-06-10T13:28:04.796Z,9.87
2023-06-10T13:30:32.105Z,9.02
2023-06-10T13:32:59.376Z,9.60
2023-06-10T13:35:26.707Z,9.18
2023-06-10T13:37:54.211Z,9.90
2023-06-10T13:40:21.666Z,9.52
2023-06-10T13:42:52.224Z,10.02
2023-06-10T13:45:19.805Z,10.05
2023-06-10T13:47:48.444Z,10.30
2023-06-10T13:50:16.166Z,10.80
2023-06-10T13:52:43.634Z,10.30
2023-06-10T13:55:11.082Z,10.57
2023-06-10T13:57:38.689Z,10.52
2023-06-10T14:00:06.937Z,10.05
2023-06-10T14:02:34.333Z,10.00
2023-06-10T14:05:02.927Z,10.73
2023-06-10T14:07:30.317Z,10.30
2023-06-10T14:09:59.904Z,9.60
2023-06-10T14:12:27.349Z,9.20
2023-06-10T14:14:54.662Z,9.88
2023-06-10T14:17:23.726Z,9.70
2023-06-10T14:19:51.092Z,9.50
2023-06-10T14:22:18.554Z,8.75
2023-06-10T14:24:45.981Z,9.18
2023-06-10T14:27:15.564Z,8.80
2023-06-10T14:29:42.960Z,8.98
2023-06-10T14:32:11.143Z,9.02
2023-06-10T14:34:39.971Z,9.07
2023-06-10T14:37:08.997Z,7.90
2023-06-10T14:39:36.814Z,7.53
2023-06-10T14:42:04.533Z,7.55
2023-06-10T14:44:32.537Z,5.90
2023-06-10T14:46:59.933Z,6.20
2023-06-10T14:49:27.202Z,6.50
2023-06-10T14:51:54.423Z,7.13
2023-06-10T14:54:22.803Z,7.05
2023-06-10T14:56:50.076Z,8.10
2023-06-10T14:59:17.397Z,7.68
2023-06-10T15:01:44.760Z,7.65
2023-06-10T15:04:13.188Z,8.38
2023-06-10T15:06:40.981Z,8.90
2023-06-10T15:09:08.495Z,8.65
2023-06-10T15:11:39.068Z,7.07
2023-06-10T15:14:06.489Z,7.50
2023-06-10T15:16:33.763Z,8.20
2023-06-10T15:19:01.056Z,7.88
2023-06-10T15:21:28.446Z,8.35
2023-06-10T15:23:55.774Z,7.88
2023-06-10T15:26:23.038Z,8.32
2023-06-10T15:28:50.326Z,7.35
2023-06-10T15:31:17.869Z,7.38
2023-06-10T15:33:47.599Z,6.00
2023-06-10T15:36:15.212Z,4.70
2023-06-10T15:38:42.703Z,3.55
2023-06-10T15:41:09.971Z,2.72
2023-06-10T15:43:37.369Z,3.00
2023-06-10T15:46:04.754Z,2.77
2023-06-10T15:48:33.547Z,3.15
2023-06-10T15:51:00.845Z,3.20
2023-06-10T15:53:28.171Z,3.40
2023-06-10T15:58:43.490Z,3.13
2023-06-10T16:01:20.346Z,2.92
2023-06-10T16:03:47.995Z,3.25
2023-06-10T16:06:16.712Z,3.00
2023-06-10T16:08:44.404Z,4.15
2023-06-10T16:11:11.868Z,3.40
2023-06-10T16:13:42.145Z,3.88
2023-06-10T16:16:12.602Z,4.03
2023-06-10T16:18:42.619Z,4.10
2023-06-10T16:21:10.131Z,3.85
2023-06-10T16:23:38.753Z,3.60
2023-06-10T16:26:06.488Z,3.78
2023-06-10T16:28:33.795Z,3.50
2023-06-10T16:31:01.422Z,3.50
2023-06-10T16:33:28.964Z,3.10
2023-06-10T16:35:56.950Z,2.50
2023-06-10T16:38:27.411Z,3.78
2023-06-10T16:40:54.819Z,2.63
2023-06-10T16:43:24.198Z,2.22
2023-06-10T16:45:51.554Z,2.35
2023-06-10T16:48:21.247Z,2.30
2023-06-10T16:50:48.489Z,2.17
2023-06-10T16:53:16.021Z,2.08
2023-06-10T16:55:50.935Z,2.58
2023-06-10T16:58:18.550Z,2.50
2023-06-10T17:00:50.819Z,2.60
2023-06-10T17:03:18.480Z,2.80
2023-06-10T17:05:45.882Z,2.80
2023-06-10T17:08:13.203Z,2.17
2023-06-10T17:10:41.051Z,2.90
2023-06-10T17:13:08.391Z,2.80
2023-06-10T17:15:35.922Z,3.05
2023-06-10T17:18:03.814Z,2.73
2023-06-10T17:20:32.218Z,2.40
2023-06-10T17:23:00.038Z,2.70
2023-06-10T17:25:27.452Z,2.57
2023-06-10T17:27:54.793Z,2.20
2023-06-10T17:30:22.154Z,2.78
2023-06-10T17:32:51.038Z,2.65
2023-06-10T17:35:18.746Z,2.87
2023-06-10T17:37:46.646Z,3.28
2023-06-10T17:40:14.185Z,3.22
2023-06-10T17:42:41.651Z,3.58
2023-06-10T17:45:10.136Z,3.20
2023-06-10T17:47:43.005Z,3.13
2023-06-10T17:50:24.373Z,3.58
2023-06-10T17:52:57.151Z,4.17
2023-06-10T17:55:24.461Z,4.20
2023-06-10T17:57:51.909Z,4.40
2023-06-10T18:00:19.784Z,5.68
2023-06-10T18:02:47.154Z,5.60
2023-06-10T18:05:14.592Z,5.07
2023-06-10T18:07:43.251Z,5.83
2023-06-10T18:10:11.279Z,5.90
2023-06-10T18:12:39.025Z,5.50
2023-06-10T18:15:24.796Z,5.55
2023-06-10T18:17:55.618Z,7.30
2023-06-10T18:20:23.066Z,6.18
2023-06-10T18:22:50.667Z,6.30
2023-06-10T18:25:18.114Z,6.50
2023-06-10T18:27:46.853Z,6.50
2023-06-10T18:30:14.887Z,7.10
2023-06-10T18:32:46.428Z,6.93
2023-06-10T18:35:14.024Z,6.80
2023-06-10T18:37:41.327Z,7.28
2023-06-10T18:40:10.730Z,7.55
2023-06-10T18:42:38.254Z,7.78
2023-06-10T18:45:18.260Z,10.57
2023-06-10T18:47:57.647Z,10.50
2023-06-10T18:50:27.729Z,9.13
2023-06-10T18:52:56.411Z,9.88
2023-06-10T18:55:37.039Z,9.57
2023-06-10T18:58:05.427Z,10.70
2023-06-10T19:00:32.772Z,9.65
2023-06-10T19:03:00.360Z,10.90
2023-06-10T19:05:31.179Z,9.00
2023-06-10T19:07:58.902Z,8.30
2023-06-10T19:10:55.489Z,8.50
2023-06-10T19:13:25.340Z,8.40
2023-06-10T19:15:52.704Z,9.02
2023-06-10T19:18:20.579Z,8.97
2023-06-10T19:20:48.174Z,8.88
2023-06-10T19:23:38.631Z,8.65
2023-06-10T19:26:06.134Z,9.50
2023-06-10T19:28:33.412Z,10.18
2023-06-10T19:31:00.767Z,10.35
2023-06-10T19:33:28.244Z,11.13
2023-06-10T19:35:56.625Z,10.93
2023-06-10T19:38:52.994Z,10.55
2023-06-10T19:41:21.441Z,9.82
2023-06-10T19:43:48.755Z,9.27
2023-06-10T19:46:35.973Z,14.73
2023-06-10T19:49:03.241Z,12.73
2023-06-10T19:51:30.547Z,12.27
2023-06-10T19:53:57.938Z,12.23
2023-06-10T19:56:26.504Z,12.40
2023-06-10T19:58:53.972Z,11.65
2023-06-10T20:01:21.542Z,13.15
2023-06-10T20:03:49.219Z,12.00
2023-06-10T20:06:16.763Z,11.97
2023-06-10T20:08:44.162Z,12.25
2023-06-10T20:11:12.495Z,12.17
2023-06-10T20:13:42.959Z,9.48
2023-06-10T20:16:28.373Z,9.98
2023-06-10T20:19:04.347Z,9.75
2023-06-10T20:21:38.590Z,10.23
2023-06-10T20:24:13.089Z,9.30
2023-06-10T20:26:53.708Z,9.23
2023-06-10T20:29:29.672Z,9.53
2023-06-10T20:32:00.641Z,9.07
2023-06-10T20:34:33.958Z,9.30
2023-06-10T20:37:04.254Z,8.50
2023-06-10T20:39:40.053Z,10.90
2023-06-10T20:42:16.759Z,11.30
2023-06-10T20:44:47.190Z,10.90
2023-06-10T20:47:14.677Z,11.43
2023-06-10T20:49:49.724Z,10.43
2023-06-10T20:52:19.684Z,10.60
2023-06-10T20:54:49.262Z,11.63
2023-06-10T20:57:29.222Z,10.73
2023-06-10T21:00:09.174Z,12.10
2023-06-10T21:02:40.268Z,11.35
2023-06-10T21:05:13.740Z,10.25
2023-06-10T21:07:48.310Z,9.88
2023-06-10T21:10:22.025Z,9.80
2023-06-10T21:13:14.005Z,10.02
2023-06-10T21:15:43.175Z,11.20
2023-06-10T21:18:13.180Z,9.93
2023-06-10T21:20:42.233Z,10.43
2023-06-10T21:23:09.862Z,9.32
2023-06-10T21:25:37.239Z,9.75
2023-06-10T21:28:05.048Z,8.73
2023-06-10T21:30:32.462Z,9.80
2023-06-10T21:32:59.755Z,9.93
2023-06-10T21:35:29.959Z,10.13
2023-06-10T21:37:57.710Z,9.13
2023-06-10T21:40:25.218Z,10.13
2023-06-10T21:42:53.144Z,9.70
2023-06-10T21:45:21.017Z,8.40
2023-06-10T21:47:48.979Z,8.30
2023-06-10T21:50:16.843Z,8.60
2023-06-10T21:52:44.222Z,9.10
2023-06-10T21:55:12.060Z,9.25
2023-06-10T21:57:39.507Z,9.45
2023-06-10T22:00:14.971Z,9.60
2023-06-10T22:02:43.861Z,9.75
2023-06-10T22:05:11.590Z,9.48
2023-06-10T22:07:39.354Z,9.98
2023-06-10T22:10:07.968Z,9.77
2023-06-10T22:12:35.417Z,9.88
2023-06-10T22:15:04.804Z,9.87
2023-06-10T22:17:32.191Z,9.70
2023-06-10T22:19:59.477Z,9.20
2023-06-10T22:22:26.826Z,10.13
2023-06-10T22:24:57.814Z,10.10
2023-06-10T22:27:26.667Z,12.23
2023-06-10T22:29:54.035Z,11.45
2023-06-10T22:32:21.813Z,9.65
2023-06-10T22:34:49.571Z,9.80
2023-06-10T22:37:17.165Z,10.23
2023-06-10T22:39:44.503Z,9.95
2023-06-10T22:42:11.898Z,10.77
2023-06-10T22:44:39.197Z,10.18
2023-06-10T22:47:07.448Z,9.65
2023-06-10T22:49:34.782Z,10.85
2023-06-10T22:52:02.114Z,10.40
2023-06-10T22:54:29.440Z,10.45
2023-06-10T22:59:43.464Z,9.40
2023-06-10T23:02:10.932Z,10.70
2023-06-10T23:04:38.391Z,10.32
2023-06-10T23:07:06.243Z,10.18
2023-06-10T23:09:33.470Z,9.88
2023-06-10T23:12:00.960Z,9.45
2023-06-10T23:14:28.341Z,9.75
2023-06-10T23:16:55.692Z,10.98
2023-06-10T23:19:23.734Z,11.95
2023-06-10T23:21:57.434Z,12.63
2023-06-10T23:24:32.382Z,15.70
2023-06-10T23:27:02.057Z,14.35
2023-06-10T23:29:30.066Z,14.77
2023-06-10T23:31:57.545Z,13.82
2023-06-10T23:34:24.927Z,14.00
2023-06-10T23:36:53.819Z,13.35
2023-06-10T23:39:23.484Z,13.57
2023-06-10T23:41:51.251Z,13.57
2023-06-10T23:44:18.720Z,13.00
2023-06-10T23:46:46.406Z,13.23
2023-06-10T23:49:13.981Z,13.77
2023-06-10T23:51:42.344Z,14.65
2023-06-10T23:54:09.914Z,14.93
2023-06-10T23:56:37.289Z,14.52
2023-06-10T23:59:04.652Z,13.93
